createdAt,value
2023-03-23T15:58:11.790Z,0.20
2023-03-23T16:00:40.811Z,0.17
2023-03-23T16:03:13.239Z,0.10
2023-03-23T16:05:41.369Z,0.37
2023-03-23T16:08:11.666Z,0.20
2023-03-23T16:10:43.414Z,0.30
2023-03-23T16:13:11.695Z,0.25
2023-03-23T16:15:39.309Z,0.20
2023-03-23T16:18:07.048Z,0.10
2023-03-23T16:20:52.693Z,0.10
2023-03-23T16:23:20.469Z,0.30
2023-03-23T16:25:51.932Z,0.57
2023-03-23T16:28:21.406Z,0.30
2023-03-23T16:30:55.993Z,0.30
2023-03-23T16:33:24.653Z,0.10
2023-03-23T16:35:56.833Z,0.30
2023-03-23T16:38:26.970Z,0.37
2023-03-23T16:41:09.607Z,0.28
2023-03-23T16:43:54.046Z,0.40
2023-03-23T16:46:32.491Z,0.17
2023-03-23T16:49:06.052Z,0.10
2023-03-23T16:51:41.754Z,0.10
2023-03-23T16:54:13.488Z,0.55
2023-03-23T16:56:41.448Z,0.00
2023-03-23T16:59:09.237Z,0.17
2023-03-23T17:01:39.671Z,0.20
2023-03-23T17:04:11.871Z,0.43
2023-03-23T17:06:39.621Z,0.10
2023-03-23T17:09:10.732Z,0.20
2023-03-23T17:14:10.052Z,0.50
2023-03-23T17:16:42.071Z,1.10
2023-03-23T17:19:10.187Z,1.33
2023-03-23T17:24:11.727Z,1.20
2023-03-23T17:26:39.695Z,0.50
2023-03-23T17:29:07.447Z,1.85
2023-03-23T17:31:35.827Z,0.68
2023-03-23T17:34:03.975Z,1.12
2023-03-23T17:36:32.010Z,1.95
2023-03-23T17:38:59.917Z,2.20
2023-03-23T17:41:28.329Z,2.30
2023-03-23T17:43:56.104Z,3.83
2023-03-23T17:46:24.618Z,2.40
2023-03-23T17:48:53.127Z,3.78
2023-03-23T17:51:20.918Z,2.17
2023-03-23T17:53:48.632Z,1.48
2023-03-23T17:56:16.955Z,5.78
2023-03-23T17:58:44.778Z,2.37
2023-03-23T18:01:12.826Z,4.03
2023-03-23T18:03:41.256Z,3.70
2023-03-23T18:06:09.609Z,2.50
2023-03-23T18:08:37.937Z,2.30
2023-03-23T18:11:06.665Z,2.83
2023-03-23T18:13:35.988Z,2.33
2023-03-23T18:16:05.897Z,1.30
2023-03-23T18:18:34.645Z,1.90
2023-03-23T18:21:05.871Z,1.48
2023-03-23T18:23:43.054Z,2.83
2023-03-23T18:26:17.908Z,2.03
2023-03-23T18:28:46.225Z,1.42
2023-03-23T18:31:16.236Z,2.67
2023-03-23T18:33:46.412Z,1.65
2023-03-23T18:36:17.953Z,2.25
2023-03-23T18:38:46.762Z,1.83
2023-03-23T18:41:15.363Z,1.80
2023-03-23T18:43:43.680Z,1.33
2023-03-23T18:46:11.678Z,1.87
2023-03-23T18:48:39.559Z,2.35
2023-03-23T18:51:07.926Z,1.42
2023-03-23T18:53:36.003Z,1.50
2023-03-23T18:56:08.309Z,1.77
2023-03-23T18:58:37.327Z,1.33
2023-03-23T19:01:09.543Z,1.45
2023-03-23T19:06:07.977Z,1.50
2023-03-23T19:08:35.963Z,1.77
2023-03-23T19:11:04.839Z,1.48
2023-03-23T19:13:34.108Z,1.95
2023-03-23T19:16:02.407Z,1.85
2023-03-23T19:18:30.754Z,2.25
2023-03-23T19:23:31.006Z,1.75
2023-03-23T19:25:59.191Z,1.83
2023-03-23T19:30:58.762Z,2.78
2023-03-23T19:33:26.928Z,0.88
2023-03-23T19:36:05.874Z,1.15
2023-03-23T19:38:38.243Z,1.02
2023-03-23T19:41:06.691Z,1.70
2023-03-23T19:43:36.281Z,1.52
2023-03-23T19:46:05.949Z,3.90
2023-03-23T19:48:34.525Z,1.00
2023-03-23T19:51:05.870Z,1.00
2023-03-23T19:53:34.669Z,2.87
2023-03-23T19:56:03.750Z,1.25
2023-03-23T19:58:34.625Z,1.10
2023-03-23T20:01:03.635Z,1.67
2023-03-23T20:03:32.198Z,1.25
2023-03-23T20:06:06.944Z,1.15
2023-03-23T20:08:35.578Z,0.82
2023-03-23T20:11:10.839Z,0.40
2023-03-23T20:13:40.192Z,0.82
2023-03-23T20:16:09.037Z,1.48
2023-03-23T20:18:37.931Z,1.55
2023-03-23T20:21:11.813Z,1.23
2023-03-23T20:23:41.276Z,0.93
2023-03-23T20:26:15.583Z,1.30
2023-03-23T20:28:44.013Z,2.22
2023-03-23T20:31:23.978Z,0.70
2023-03-23T20:34:01.162Z,0.82
2023-03-23T20:36:35.336Z,1.58
2023-03-23T20:39:06.544Z,0.60
2023-03-23T20:41:35.278Z,1.90
2023-03-23T20:44:05.068Z,1.10
2023-03-23T20:46:33.640Z,1.35
2023-03-23T20:49:02.427Z,0.98
2023-03-23T20:51:30.335Z,0.95
2023-03-23T20:53:58.250Z,0.70
2023-03-23T20:56:26.715Z,0.80
2023-03-23T20:58:55.976Z,0.47
2023-03-23T21:01:24.809Z,0.70
2023-03-23T21:03:53.690Z,0.40
2023-03-23T21:06:21.628Z,1.00
2023-03-23T21:08:49.979Z,1.75
2023-03-23T21:11:21.124Z,0.95
2023-03-23T21:13:49.491Z,1.20
2023-03-23T21:16:18.227Z,0.52
2023-03-23T21:18:46.441Z,1.25
2023-03-23T21:21:14.219Z,0.65
2023-03-23T21:23:41.868Z,0.62
2023-03-23T21:26:10.665Z,0.68
2023-03-23T21:28:38.735Z,0.85
2023-03-23T21:31:06.831Z,0.82
2023-03-23T21:33:35.179Z,0.90
2023-03-23T21:36:02.932Z,1.12
2023-03-23T21:38:31.205Z,0.45
2023-03-23T21:41:00.679Z,1.98
2023-03-23T21:43:28.474Z,1.20
2023-03-23T21:45:57.772Z,0.73
2023-03-23T21:48:27.146Z,1.15
2023-03-23T21:50:56.590Z,1.02
2023-03-23T21:53:24.500Z,0.70
2023-03-23T21:55:52.738Z,0.40
2023-03-23T21:58:25.401Z,0.55
2023-03-23T22:00:54.305Z,0.75
2023-03-23T22:03:23.521Z,0.70
2023-03-23T22:05:52.990Z,0.32
2023-03-23T22:08:21.897Z,0.40
2023-03-23T22:11:00.450Z,0.50
2023-03-23T22:13:30.995Z,0.60
2023-03-23T22:16:00.756Z,1.40
2023-03-23T22:18:28.512Z,1.00
2023-03-23T22:20:56.691Z,1.15
2023-03-23T22:23:27.214Z,1.77
2023-03-23T22:25:55.009Z,1.17
2023-03-23T22:28:24.575Z,0.73
2023-03-23T22:31:00.877Z,1.25
2023-03-23T22:33:28.902Z,1.58
2023-03-23T22:35:57.195Z,1.17
2023-03-23T22:38:25.030Z,1.00
2023-03-23T22:40:59.978Z,0.37
2023-03-23T22:43:28.506Z,1.05
2023-03-23T22:45:56.333Z,0.32
2023-03-23T22:48:25.761Z,0.93
2023-03-23T22:50:54.387Z,1.08
2023-03-23T22:53:22.247Z,0.75
2023-03-23T22:55:51.577Z,0.40
2023-03-23T22:58:19.589Z,0.52
2023-03-23T23:00:50.266Z,0.95
2023-03-23T23:03:18.119Z,0.93
2023-03-23T23:05:49.283Z,1.27
2023-03-23T23:08:18.176Z,0.20
2023-03-23T23:10:48.852Z,0.98
2023-03-23T23:13:17.070Z,0.75
2023-03-23T23:15:47.556Z,0.60
2023-03-23T23:18:15.978Z,0.30
2023-03-23T23:20:43.973Z,1.20
2023-03-23T23:23:11.740Z,0.40
2023-03-23T23:25:40.023Z,0.77
2023-03-23T23:28:07.731Z,0.43
2023-03-23T23:30:35.674Z,0.40
2023-03-23T23:33:04.448Z,0.75
2023-03-23T23:35:32.202Z,0.50
2023-03-23T23:38:00.476Z,0.40
2023-03-23T23:40:28.489Z,1.37
2023-03-23T23:42:56.211Z,0.32
2023-03-23T23:45:24.048Z,0.57
2023-03-23T23:47:52.694Z,1.02
2023-03-23T23:50:20.706Z,1.40
2023-03-23T23:52:48.521Z,0.57
2023-03-23T23:55:17.328Z,0.32
2023-03-23T23:57:46.459Z,0.70
